sensor_id;sensor_type;location;lat;lon;timestamp;P1;durP1;ratioP1;P2;durP2;ratioP2
57375;SDS011;44805;45.048;5.062;2023-06-05T00:01:24;6.15;;;3.25;;
57375;SDS011;44805;45.048;5.062;2023-06-05T00:03:49;6.45;;;3.17;;
57375;SDS011;44805;45.048;5.062;2023-06-05T00:06:15;6.18;;;3.25;;
57375;SDS011;44805;45.048;5.062;2023-06-05T00:08:40;7.28;;;3.63;;
57375;SDS011;44805;45.048;5.062;2023-06-05T00:11:06;7.75;;;3.90;;
57375;SDS011;44805;45.048;5.062;2023-06-05T00:13:31;6.90;;;3.03;;
57375;SDS011;44805;45.048;5.062;2023-06-05T00:15:57;7.90;;;3.75;;
57375;SDS011;44805;45.048;5.062;2023-06-05T00:18:22;7.55;;;3.20;;
57375;SDS011;44805;45.048;5.062;2023-06-05T00:20:47;6.15;;;3.00;;
57375;SDS011;44805;45.048;5.062;2023-06-05T00:23:13;6.88;;;3.20;;
57375;SDS011;44805;45.048;5.062;2023-06-05T00:25:38;7.45;;;3.55;;
57375;SDS011;44805;45.048;5.062;2023-06-05T00:28:04;7.13;;;3.50;;
57375;SDS011;44805;45.048;5.062;2023-06-05T00:30:30;6.20;;;2.53;;
57375;SDS011;44805;45.048;5.062;2023-06-05T00:32:56;5.80;;;2.97;;
57375;SDS011;44805;45.048;5.062;2023-06-05T00:35:21;8.27;;;3.60;;
57375;SDS011;44805;45.048;5.062;2023-06-05T00:37:47;7.50;;;3.50;;
57375;SDS011;44805;45.048;5.062;2023-06-05T00:40:13;5.78;;;2.75;;
57375;SDS011;44805;45.048;5.062;2023-06-05T00:42:38;9.70;;;3.20;;
57375;SDS011;44805;45.048;5.062;2023-06-05T00:45:04;6.30;;;3.00;;
57375;SDS011;44805;45.048;5.062;2023-06-05T00:47:30;5.88;;;3.15;;
57375;SDS011;44805;45.048;5.062;2023-06-05T00:49:56;6.47;;;3.10;;
57375;SDS011;44805;45.048;5.062;2023-06-05T00:52:22;5.80;;;2.90;;
57375;SDS011;44805;45.048;5.062;2023-06-05T00:54:47;5.50;;;2.85;;
57375;SDS011;44805;45.048;5.062;2023-06-05T00:57:13;6.57;;;2.80;;
57375;SDS011;44805;45.048;5.062;2023-06-05T00:59:39;5.72;;;2.83;;
57375;SDS011;44805;45.048;5.062;2023-06-05T01:02:05;5.63;;;2.88;;
57375;SDS011;44805;45.048;5.062;2023-06-05T01:04:31;6.25;;;2.60;;
57375;SDS011;44805;45.048;5.062;2023-06-05T01:07:01;6.57;;;2.90;;
57375;SDS011;44805;45.048;5.062;2023-06-05T01:09:28;5.68;;;3.03;;
57375;SDS011;44805;45.048;5.062;2023-06-05T01:14:27;6.10;;;2.88;;
57375;SDS011;44805;45.048;5.062;2023-06-05T01:16:56;6.15;;;3.40;;
57375;SDS011;44805;45.048;5.062;2023-06-05T01:19:26;6.88;;;3.47;;
57375;SDS011;44805;45.048;5.062;2023-06-05T01:21:57;7.07;;;3.17;;
57375;SDS011;44805;45.048;5.062;2023-06-05T01:24:23;5.80;;;3.05;;
57375;SDS011;44805;45.048;5.062;2023-06-05T01:32:23;8.60;;;3.60;;
57375;SDS011;44805;45.048;5.062;2023-06-05T01:35:03;8.70;;;3.25;;
57375;SDS011;44805;45.048;5.062;2023-06-05T01:37:32;5.63;;;2.65;;
57375;SDS011;44805;45.048;5.062;2023-06-05T01:40:05;8.25;;;3.33;;
57375;SDS011;44805;45.048;5.062;2023-06-05T01:42:33;6.93;;;3.30;;
57375;SDS011;44805;45.048;5.062;2023-06-05T01:44:59;6.32;;;3.40;;
57375;SDS011;44805;45.048;5.062;2023-06-05T01:47:25;7.35;;;3.70;;
57375;SDS011;44805;45.048;5.062;2023-06-05T01:49:51;7.88;;;3.67;;
57375;SDS011;44805;45.048;5.062;2023-06-05T01:52:17;7.38;;;3.42;;
57375;SDS011;44805;45.048;5.062;2023-06-05T01:54:42;6.40;;;3.15;;
57375;SDS011;44805;45.048;5.062;2023-06-05T01:57:08;6.72;;;3.58;;
57375;SDS011;44805;45.048;5.062;2023-06-05T01:59:34;6.72;;;3.60;;
57375;SDS011;44805;45.048;5.062;2023-06-05T02:02:00;7.13;;;3.90;;
57375;SDS011;44805;45.048;5.062;2023-06-05T02:04:25;7.72;;;4.05;;
57375;SDS011;44805;45.048;5.062;2023-06-05T02:06:52;9.00;;;3.88;;
57375;SDS011;44805;45.048;5.062;2023-06-05T02:09:18;8.25;;;3.58;;
57375;SDS011;44805;45.048;5.062;2023-06-05T02:11:44;8.10;;;3.67;;
57375;SDS011;44805;45.048;5.062;2023-06-05T02:14:11;8.93;;;3.90;;
57375;SDS011;44805;45.048;5.062;2023-06-05T02:16:38;7.38;;;3.80;;
57375;SDS011;44805;45.048;5.062;2023-06-05T02:19:04;10.32;;;3.40;;
57375;SDS011;44805;45.048;5.062;2023-06-05T02:21:31;8.00;;;3.80;;
57375;SDS011;44805;45.048;5.062;2023-06-05T02:23:58;6.88;;;3.67;;
57375;SDS011;44805;45.048;5.062;2023-06-05T02:26:27;6.82;;;3.33;;
57375;SDS011;44805;45.048;5.062;2023-06-05T02:28:53;6.40;;;3.60;;
57375;SDS011;44805;45.048;5.062;2023-06-05T02:31:22;7.13;;;3.43;;
57375;SDS011;44805;45.048;5.062;2023-06-05T02:33:54;8.07;;;3.15;;
57375;SDS011;44805;45.048;5.062;2023-06-05T02:36:20;10.25;;;4.50;;
57375;SDS011;44805;45.048;5.062;2023-06-05T02:38:47;6.88;;;3.10;;
57375;SDS011;44805;45.048;5.062;2023-06-05T02:41:14;7.47;;;3.70;;
57375;SDS011;44805;45.048;5.062;2023-06-05T02:43:43;6.95;;;3.53;;
57375;SDS011;44805;45.048;5.062;2023-06-05T02:46:09;7.25;;;3.65;;
57375;SDS011;44805;45.048;5.062;2023-06-05T02:48:35;6.43;;;2.97;;
57375;SDS011;44805;45.048;5.062;2023-06-05T02:51:01;8.57;;;3.55;;
57375;SDS011;44805;45.048;5.062;2023-06-05T02:53:28;7.70;;;3.38;;
57375;SDS011;44805;45.048;5.062;2023-06-05T02:55:53;7.95;;;3.33;;
57375;SDS011;44805;45.048;5.062;2023-06-05T02:58:20;5.85;;;3.08;;
57375;SDS011;44805;45.048;5.062;2023-06-05T03:00:46;7.30;;;3.13;;
57375;SDS011;44805;45.048;5.062;2023-06-05T03:03:12;7.07;;;3.08;;
57375;SDS011;44805;45.048;5.062;2023-06-05T03:05:38;7.15;;;2.85;;
57375;SDS011;44805;45.048;5.062;2023-06-05T03:08:05;6.30;;;3.15;;
57375;SDS011;44805;45.048;5.062;2023-06-05T03:10:31;7.63;;;3.22;;
57375;SDS011;44805;45.048;5.062;2023-06-05T03:12:57;6.25;;;2.90;;
57375;SDS011;44805;45.048;5.062;2023-06-05T03:15:22;6.90;;;2.78;;
57375;SDS011;44805;45.048;5.062;2023-06-05T03:17:48;9.40;;;3.08;;
57375;SDS011;44805;45.048;5.062;2023-06-05T03:20:16;7.22;;;3.28;;
57375;SDS011;44805;45.048;5.062;2023-06-05T03:22:42;6.33;;;3.20;;
57375;SDS011;44805;45.048;5.062;2023-06-05T03:25:08;8.23;;;3.28;;
57375;SDS011;44805;45.048;5.062;2023-06-05T03:27:34;6.35;;;3.20;;
57375;SDS011;44805;45.048;5.062;2023-06-05T03:30:00;7.07;;;2.97;;
57375;SDS011;44805;45.048;5.062;2023-06-05T03:32:26;6.30;;;2.97;;
57375;SDS011;44805;45.048;5.062;2023-06-05T03:34:52;6.15;;;3.10;;
57375;SDS011;44805;45.048;5.062;2023-06-05T03:37:17;6.82;;;3.33;;
57375;SDS011;44805;45.048;5.062;2023-06-05T03:39:43;5.65;;;2.78;;
57375;SDS011;44805;45.048;5.062;2023-06-05T03:42:08;7.38;;;2.95;;
57375;SDS011;44805;45.048;5.062;2023-06-05T03:44:36;7.05;;;3.38;;
57375;SDS011;44805;45.048;5.062;2023-06-05T03:47:02;5.32;;;2.95;;
57375;SDS011;44805;45.048;5.062;2023-06-05T03:49:27;6.07;;;3.30;;
57375;SDS011;44805;45.048;5.062;2023-06-05T03:51:54;6.82;;;3.20;;
57375;SDS011;44805;45.048;5.062;2023-06-05T03:54:26;7.78;;;3.20;;
57375;SDS011;44805;45.048;5.062;2023-06-05T03:56:57;6.60;;;3.38;;
57375;SDS011;44805;45.048;5.062;2023-06-05T03:59:25;6.25;;;2.85;;
57375;SDS011;44805;45.048;5.062;2023-06-05T04:01:53;6.25;;;3.15;;
57375;SDS011;44805;45.048;5.062;2023-06-05T04:04:19;7.10;;;3.22;;
57375;SDS011;44805;45.048;5.062;2023-06-05T04:06:45;6.38;;;3.45;;
57375;SDS011;44805;45.048;5.062;2023-06-05T04:09:11;8.02;;;3.78;;
57375;SDS011;44805;45.048;5.062;2023-06-05T04:11:40;7.13;;;3.38;;
57375;SDS011;44805;45.048;5.062;2023-06-05T04:14:07;9.38;;;3.65;;
57375;SDS011;44805;45.048;5.062;2023-06-05T04:16:34;6.97;;;3.72;;
57375;SDS011;44805;45.048;5.062;2023-06-05T04:19:03;6.30;;;3.60;;
57375;SDS011;44805;45.048;5.062;2023-06-05T04:24:53;9.75;;;4.07;;
57375;SDS011;44805;45.048;5.062;2023-06-05T04:27:18;12.90;;;5.88;;
57375;SDS011;44805;45.048;5.062;2023-06-05T04:29:44;8.32;;;4.38;;
57375;SDS011;44805;45.048;5.062;2023-06-05T04:32:10;9.82;;;5.00;;
57375;SDS011;44805;45.048;5.062;2023-06-05T04:34:35;16.60;;;7.90;;
57375;SDS011;44805;45.048;5.062;2023-06-05T04:37:01;8.85;;;4.18;;
57375;SDS011;44805;45.048;5.062;2023-06-05T04:39:26;10.52;;;4.47;;
57375;SDS011;44805;45.048;5.062;2023-06-05T04:41:52;10.75;;;4.68;;
57375;SDS011;44805;45.048;5.062;2023-06-05T04:44:17;10.50;;;4.50;;
57375;SDS011;44805;45.048;5.062;2023-06-05T04:46:44;7.93;;;3.88;;
57375;SDS011;44805;45.048;5.062;2023-06-05T04:49:11;8.15;;;3.83;;
57375;SDS011;44805;45.048;5.062;2023-06-05T04:51:37;8.75;;;4.10;;
57375;SDS011;44805;45.048;5.062;2023-06-05T04:54:03;7.03;;;3.80;;
57375;SDS011;44805;45.048;5.062;2023-06-05T04:56:29;6.30;;;3.25;;
57375;SDS011;44805;45.048;5.062;2023-06-05T04:58:54;7.13;;;3.70;;
57375;SDS011;44805;45.048;5.062;2023-06-05T05:01:20;8.60;;;3.65;;
57375;SDS011;44805;45.048;5.062;2023-06-05T05:03:46;9.45;;;4.05;;
57375;SDS011;44805;45.048;5.062;2023-06-05T05:06:16;8.80;;;4.68;;
57375;SDS011;44805;45.048;5.062;2023-06-05T05:08:42;9.38;;;4.93;;
57375;SDS011;44805;45.048;5.062;2023-06-05T05:11:11;7.60;;;4.47;;
57375;SDS011;44805;45.048;5.062;2023-06-05T05:13:37;7.85;;;4.50;;
57375;SDS011;44805;45.048;5.062;2023-06-05T05:16:03;8.90;;;3.78;;
57375;SDS011;44805;45.048;5.062;2023-06-05T05:18:29;7.75;;;3.83;;
57375;SDS011;44805;45.048;5.062;2023-06-05T05:20:55;8.55;;;3.55;;
57375;SDS011;44805;45.048;5.062;2023-06-05T05:23:21;7.57;;;3.63;;
57375;SDS011;44805;45.048;5.062;2023-06-05T05:25:47;7.38;;;4.13;;
57375;SDS011;44805;45.048;5.062;2023-06-05T05:28:13;8.18;;;3.70;;
57375;SDS011;44805;45.048;5.062;2023-06-05T05:30:39;7.78;;;3.70;;
57375;SDS011;44805;45.048;5.062;2023-06-05T05:33:04;7.28;;;3.80;;
57375;SDS011;44805;45.048;5.062;2023-06-05T05:35:32;7.28;;;3.90;;
57375;SDS011;44805;45.048;5.062;2023-06-05T05:37:58;7.93;;;3.50;;
57375;SDS011;44805;45.048;5.062;2023-06-05T05:42:58;7.10;;;3.78;;
57375;SDS011;44805;45.048;5.062;2023-06-05T05:45:24;6.35;;;3.40;;
57375;SDS011;44805;45.048;5.062;2023-06-05T05:47:50;6.82;;;3.38;;
57375;SDS011;44805;45.048;5.062;2023-06-05T05:50:15;7.60;;;3.63;;
57375;SDS011;44805;45.048;5.062;2023-06-05T05:52:40;8.75;;;3.75;;
57375;SDS011;44805;45.048;5.062;2023-06-05T05:55:08;10.93;;;4.22;;
57375;SDS011;44805;45.048;5.062;2023-06-05T05:57:34;10.85;;;3.80;;
57375;SDS011;44805;45.048;5.062;2023-06-05T05:59:59;8.95;;;4.20;;
57375;SDS011;44805;45.048;5.062;2023-06-05T06:02:25;8.65;;;3.83;;
57375;SDS011;44805;45.048;5.062;2023-06-05T06:04:50;11.85;;;4.43;;
57375;SDS011;44805;45.048;5.062;2023-06-05T06:07:16;11.45;;;4.57;;
57375;SDS011;44805;45.048;5.062;2023-06-05T06:09:42;12.27;;;4.68;;
57375;SDS011;44805;45.048;5.062;2023-06-05T06:12:07;12.15;;;5.00;;
57375;SDS011;44805;45.048;5.062;2023-06-05T06:14:33;12.60;;;5.47;;
57375;SDS011;44805;45.048;5.062;2023-06-05T06:17:00;13.32;;;5.47;;
57375;SDS011;44805;45.048;5.062;2023-06-05T06:19:27;10.57;;;4.80;;
57375;SDS011;44805;45.048;5.062;2023-06-05T06:21:53;12.43;;;5.07;;
57375;SDS011;44805;45.048;5.062;2023-06-05T06:24:19;11.85;;;5.55;;
57375;SDS011;44805;45.048;5.062;2023-06-05T06:26:48;13.63;;;6.05;;
57375;SDS011;44805;45.048;5.062;2023-06-05T06:29:17;14.05;;;6.00;;
57375;SDS011;44805;45.048;5.062;2023-06-05T06:31:43;15.43;;;5.63;;
57375;SDS011;44805;45.048;5.062;2023-06-05T06:34:09;13.95;;;5.55;;
57375;SDS011;44805;45.048;5.062;2023-06-05T06:36:35;12.43;;;5.88;;
57375;SDS011;44805;45.048;5.062;2023-06-05T06:39:09;10.98;;;5.25;;
57375;SDS011;44805;45.048;5.062;2023-06-05T06:41:35;11.75;;;5.55;;
57375;SDS011;44805;45.048;5.062;2023-06-05T06:44:01;16.35;;;6.38;;
57375;SDS011;44805;45.048;5.062;2023-06-05T06:46:27;12.82;;;5.40;;
57375;SDS011;44805;45.048;5.062;2023-06-05T06:48:52;13.43;;;6.05;;
57375;SDS011;44805;45.048;5.062;2023-06-05T06:51:18;12.00;;;5.88;;
57375;SDS011;44805;45.048;5.062;2023-06-05T06:53:44;11.32;;;6.00;;
57375;SDS011;44805;45.048;5.062;2023-06-05T06:56:09;14.25;;;5.70;;
57375;SDS011;44805;45.048;5.062;2023-06-05T06:58:35;9.60;;;5.28;;
57375;SDS011;44805;45.048;5.062;2023-06-05T07:01:01;14.82;;;6.38;;
57375;SDS011;44805;45.048;5.062;2023-06-05T07:03:28;9.45;;;5.30;;
57375;SDS011;44805;45.048;5.062;2023-06-05T07:05:53;10.00;;;5.85;;
57375;SDS011;44805;45.048;5.062;2023-06-05T07:08:19;11.43;;;5.68;;
57375;SDS011;44805;45.048;5.062;2023-06-05T07:10:45;12.20;;;5.57;;
57375;SDS011;44805;45.048;5.062;2023-06-05T07:13:10;11.38;;;5.50;;
57375;SDS011;44805;45.048;5.062;2023-06-05T07:15:35;11.63;;;5.85;;
57375;SDS011;44805;45.048;5.062;2023-06-05T07:18:01;12.38;;;5.75;;
57375;SDS011;44805;45.048;5.062;2023-06-05T07:20:26;13.55;;;6.15;;
57375;SDS011;44805;45.048;5.062;2023-06-05T07:22:52;10.13;;;5.32;;
57375;SDS011;44805;45.048;5.062;2023-06-05T07:25:17;11.10;;;5.85;;
57375;SDS011;44805;45.048;5.062;2023-06-05T07:27:46;10.73;;;5.80;;
57375;SDS011;44805;45.048;5.062;2023-06-05T07:30:11;12.63;;;5.70;;
57375;SDS011;44805;45.048;5.062;2023-06-05T07:32:38;11.45;;;5.95;;
57375;SDS011;44805;45.048;5.062;2023-06-05T07:35:04;13.85;;;5.53;;
57375;SDS011;44805;45.048;5.062;2023-06-05T07:37:30;11.70;;;6.18;;
57375;SDS011;44805;45.048;5.062;2023-06-05T07:39:55;10.35;;;5.70;;
57375;SDS011;44805;45.048;5.062;2023-06-05T07:42:20;11.68;;;5.95;;
57375;SDS011;44805;45.048;5.062;2023-06-05T07:44:46;12.38;;;6.38;;
57375;SDS011;44805;45.048;5.062;2023-06-05T07:47:13;11.38;;;6.05;;
57375;SDS011;44805;45.048;5.062;2023-06-05T07:49:38;10.45;;;6.15;;
57375;SDS011;44805;45.048;5.062;2023-06-05T07:52:04;11.18;;;6.22;;
57375;SDS011;44805;45.048;5.062;2023-06-05T07:54:29;10.82;;;5.78;;
57375;SDS011;44805;45.048;5.062;2023-06-05T07:56:55;11.43;;;6.68;;
57375;SDS011;44805;45.048;5.062;2023-06-05T07:59:22;11.75;;;6.40;;
57375;SDS011;44805;45.048;5.062;2023-06-05T08:01:52;13.00;;;6.25;;
57375;SDS011;44805;45.048;5.062;2023-06-05T08:04:19;9.80;;;5.40;;
57375;SDS011;44805;45.048;5.062;2023-06-05T08:06:45;11.82;;;6.53;;
57375;SDS011;44805;45.048;5.062;2023-06-05T08:09:10;11.05;;;6.47;;
57375;SDS011;44805;45.048;5.062;2023-06-05T08:11:37;10.93;;;6.38;;
57375;SDS011;44805;45.048;5.062;2023-06-05T08:14:07;10.93;;;6.22;;
57375;SDS011;44805;45.048;5.062;2023-06-05T08:16:33;8.70;;;5.45;;
57375;SDS011;44805;45.048;5.062;2023-06-05T08:18:59;11.48;;;5.85;;
57375;SDS011;44805;45.048;5.062;2023-06-05T08:24:16;9.60;;;5.53;;
57375;SDS011;44805;45.048;5.062;2023-06-05T08:26:42;10.15;;;5.38;;
57375;SDS011;44805;45.048;5.062;2023-06-05T08:29:07;9.70;;;5.82;;
57375;SDS011;44805;45.048;5.062;2023-06-05T08:31:32;9.93;;;5.07;;
57375;SDS011;44805;45.048;5.062;2023-06-05T08:33:59;8.98;;;5.22;;
57375;SDS011;44805;45.048;5.062;2023-06-05T08:36:40;9.45;;;5.20;;
57375;SDS011;44805;45.048;5.062;2023-06-05T08:39:07;10.18;;;5.07;;
57375;SDS011;44805;45.048;5.062;2023-06-05T08:41:33;9.57;;;5.20;;
57375;SDS011;44805;45.048;5.062;2023-06-05T08:44:00;8.80;;;5.13;;
57375;SDS011;44805;45.048;5.062;2023-06-05T08:46:29;11.60;;;5.72;;
57375;SDS011;44805;45.048;5.062;2023-06-05T08:48:56;7.53;;;4.65;;
57375;SDS011;44805;45.048;5.062;2023-06-05T08:54:10;8.68;;;4.25;;
57375;SDS011;44805;45.048;5.062;2023-06-05T08:56:42;8.02;;;4.55;;
57375;SDS011;44805;45.048;5.062;2023-06-05T08:59:08;7.30;;;4.55;;
57375;SDS011;44805;45.048;5.062;2023-06-05T09:01:39;8.48;;;3.72;;
57375;SDS011;44805;45.048;5.062;2023-06-05T09:04:05;7.40;;;4.25;;
57375;SDS011;44805;45.048;5.062;2023-06-05T09:06:31;8.57;;;4.38;;
57375;SDS011;44805;45.048;5.062;2023-06-05T09:08:58;7.75;;;3.75;;
57375;SDS011;44805;45.048;5.062;2023-06-05T09:11:29;6.72;;;3.30;;
57375;SDS011;44805;45.048;5.062;2023-06-05T09:13:55;6.38;;;3.33;;
57375;SDS011;44805;45.048;5.062;2023-06-05T09:16:23;6.47;;;3.45;;
57375;SDS011;44805;45.048;5.062;2023-06-05T09:18:58;6.40;;;3.33;;
57375;SDS011;44805;45.048;5.062;2023-06-05T09:21:25;7.43;;;3.72;;
57375;SDS011;44805;45.048;5.062;2023-06-05T09:27:06;6.68;;;3.60;;
57375;SDS011;44805;45.048;5.062;2023-06-05T09:29:32;7.25;;;3.63;;
57375;SDS011;44805;45.048;5.062;2023-06-05T09:31:59;5.72;;;3.25;;
57375;SDS011;44805;45.048;5.062;2023-06-05T09:34:26;7.65;;;3.92;;
57375;SDS011;44805;45.048;5.062;2023-06-05T09:36:52;6.55;;;3.40;;
57375;SDS011;44805;45.048;5.062;2023-06-05T09:39:20;7.85;;;3.80;;
57375;SDS011;44805;45.048;5.062;2023-06-05T09:41:46;6.72;;;3.60;;
57375;SDS011;44805;45.048;5.062;2023-06-05T09:44:14;6.60;;;3.53;;
57375;SDS011;44805;45.048;5.062;2023-06-05T09:46:59;5.85;;;3.33;;
57375;SDS011;44805;45.048;5.062;2023-06-05T09:55:09;7.25;;;3.50;;
57375;SDS011;44805;45.048;5.062;2023-06-05T09:57:35;6.25;;;3.47;;
57375;SDS011;44805;45.048;5.062;2023-06-05T10:00:02;6.72;;;3.90;;
57375;SDS011;44805;45.048;5.062;2023-06-05T10:02:35;7.00;;;3.42;;
57375;SDS011;44805;45.048;5.062;2023-06-05T10:05:01;6.85;;;3.20;;
57375;SDS011;44805;45.048;5.062;2023-06-05T10:07:41;6.10;;;3.08;;
57375;SDS011;44805;45.048;5.062;2023-06-05T10:10:08;8.60;;;3.67;;
57375;SDS011;44805;45.048;5.062;2023-06-05T10:12:34;5.85;;;3.38;;
57375;SDS011;44805;45.048;5.062;2023-06-05T10:15:00;5.60;;;3.05;;
57375;SDS011;44805;45.048;5.062;2023-06-05T10:17:27;5.72;;;3.13;;
57375;SDS011;44805;45.048;5.062;2023-06-05T10:19:52;5.50;;;3.10;;
57375;SDS011;44805;45.048;5.062;2023-06-05T10:22:24;7.25;;;3.33;;
57375;SDS011;44805;45.048;5.062;2023-06-05T10:24:52;6.47;;;3.55;;
57375;SDS011;44805;45.048;5.062;2023-06-05T10:36:14;7.25;;;3.40;;
57375;SDS011;44805;45.048;5.062;2023-06-05T10:38:54;5.82;;;3.35;;
57375;SDS011;44805;45.048;5.062;2023-06-05T10:41:20;4.95;;;3.08;;
57375;SDS011;44805;45.048;5.062;2023-06-05T10:43:48;7.10;;;3.63;;
57375;SDS011;44805;45.048;5.062;2023-06-05T10:51:32;4.90;;;2.85;;
57375;SDS011;44805;45.048;5.062;2023-06-05T10:54:12;6.43;;;3.10;;
57375;SDS011;44805;45.048;5.062;2023-06-05T10:59:21;6.35;;;3.55;;
57375;SDS011;44805;45.048;5.062;2023-06-05T11:02:21;5.38;;;3.47;;
57375;SDS011;44805;45.048;5.062;2023-06-05T11:15:52;6.68;;;2.92;;
57375;SDS011;44805;45.048;5.062;2023-06-05T11:17:56;6.63;;;3.20;;
57375;SDS011;44805;45.048;5.062;2023-06-05T11:30:19;5.97;;;3.30;;
57375;SDS011;44805;45.048;5.062;2023-06-05T11:32:46;5.88;;;3.55;;
57375;SDS011;44805;45.048;5.062;2023-06-05T11:35:12;7.82;;;3.22;;
57375;SDS011;44805;45.048;5.062;2023-06-05T11:37:38;5.97;;;3.50;;
57375;SDS011;44805;45.048;5.062;2023-06-05T11:40:07;6.32;;;3.40;;
57375;SDS011;44805;45.048;5.062;2023-06-05T11:42:36;7.28;;;3.20;;
57375;SDS011;44805;45.048;5.062;2023-06-05T11:45:15;6.05;;;3.47;;
57375;SDS011;44805;45.048;5.062;2023-06-05T11:47:40;5.85;;;3.10;;
57375;SDS011;44805;45.048;5.062;2023-06-05T11:50:06;6.18;;;3.20;;
57375;SDS011;44805;45.048;5.062;2023-06-05T11:52:33;5.70;;;3.45;;
57375;SDS011;44805;45.048;5.062;2023-06-05T11:55:10;6.30;;;3.60;;
57375;SDS011;44805;45.048;5.062;2023-06-05T12:00:07;7.85;;;3.75;;
57375;SDS011;44805;45.048;5.062;2023-06-05T12:02:34;7.65;;;4.07;;
57375;SDS011;44805;45.048;5.062;2023-06-05T12:05:01;6.07;;;3.50;;
57375;SDS011;44805;45.048;5.062;2023-06-05T12:07:27;6.80;;;3.55;;
57375;SDS011;44805;45.048;5.062;2023-06-05T12:09:53;6.78;;;3.88;;
57375;SDS011;44805;45.048;5.062;2023-06-05T12:12:19;7.35;;;3.95;;
57375;SDS011;44805;45.048;5.062;2023-06-05T12:14:45;6.70;;;3.92;;
57375;SDS011;44805;45.048;5.062;2023-06-05T12:17:11;6.10;;;3.95;;
57375;SDS011;44805;45.048;5.062;2023-06-05T12:19:37;5.88;;;3.40;;
57375;SDS011;44805;45.048;5.062;2023-06-05T12:22:03;5.68;;;3.30;;
57375;SDS011;44805;45.048;5.062;2023-06-05T12:24:30;6.50;;;3.90;;
57375;SDS011;44805;45.048;5.062;2023-06-05T12:26:57;7.88;;;4.28;;
57375;SDS011;44805;45.048;5.062;2023-06-05T12:29:27;5.95;;;3.90;;
57375;SDS011;44805;45.048;5.062;2023-06-05T12:31:55;6.88;;;3.70;;
57375;SDS011;44805;45.048;5.062;2023-06-05T12:34:41;6.45;;;3.45;;
57375;SDS011;44805;45.048;5.062;2023-06-05T12:37:10;6.70;;;3.63;;
57375;SDS011;44805;45.048;5.062;2023-06-05T12:39:38;6.32;;;3.50;;
57375;SDS011;44805;45.048;5.062;2023-06-05T12:42:03;7.82;;;3.60;;
57375;SDS011;44805;45.048;5.062;2023-06-05T12:44:29;7.68;;;4.35;;
57375;SDS011;44805;45.048;5.062;2023-06-05T12:46:55;8.15;;;4.00;;
57375;SDS011;44805;45.048;5.062;2023-06-05T12:49:22;6.35;;;3.70;;
57375;SDS011;44805;45.048;5.062;2023-06-05T12:51:47;8.10;;;3.63;;
57375;SDS011;44805;45.048;5.062;2023-06-05T12:54:13;9.10;;;4.68;;
57375;SDS011;44805;45.048;5.062;2023-06-05T12:56:39;7.85;;;3.90;;
57375;SDS011;44805;45.048;5.062;2023-06-05T12:59:05;5.78;;;3.33;;
57375;SDS011;44805;45.048;5.062;2023-06-05T13:01:32;8.48;;;3.80;;
57375;SDS011;44805;45.048;5.062;2023-06-05T13:06:26;5.78;;;3.45;;
57375;SDS011;44805;45.048;5.062;2023-06-05T13:08:53;6.80;;;3.72;;
57375;SDS011;44805;45.048;5.062;2023-06-05T13:11:18;5.95;;;3.97;;
57375;SDS011;44805;45.048;5.062;2023-06-05T13:13:43;6.28;;;3.67;;
57375;SDS011;44805;45.048;5.062;2023-06-05T13:16:09;6.32;;;3.50;;
57375;SDS011;44805;45.048;5.062;2023-06-05T13:18:35;7.93;;;3.80;;
57375;SDS011;44805;45.048;5.062;2023-06-05T13:21:02;6.38;;;3.70;;
57375;SDS011;44805;45.048;5.062;2023-06-05T13:23:28;7.88;;;4.00;;
57375;SDS011;44805;45.048;5.062;2023-06-05T13:25:54;7.35;;;3.55;;
57375;SDS011;44805;45.048;5.062;2023-06-05T13:28:20;6.95;;;3.50;;
57375;SDS011;44805;45.048;5.062;2023-06-05T13:30:46;6.15;;;3.70;;
57375;SDS011;44805;45.048;5.062;2023-06-05T13:33:12;6.63;;;3.75;;
57375;SDS011;44805;45.048;5.062;2023-06-05T13:35:38;9.88;;;3.95;;
57375;SDS011;44805;45.048;5.062;2023-06-05T13:38:03;7.22;;;3.85;;
57375;SDS011;44805;45.048;5.062;2023-06-05T13:40:28;7.10;;;3.80;;
57375;SDS011;44805;45.048;5.062;2023-06-05T13:42:56;8.00;;;3.75;;
57375;SDS011;44805;45.048;5.062;2023-06-05T13:45:21;7.03;;;3.80;;
57375;SDS011;44805;45.048;5.062;2023-06-05T13:47:47;7.20;;;4.00;;
57375;SDS011;44805;45.048;5.062;2023-06-05T13:50:12;6.50;;;3.75;;
57375;SDS011;44805;45.048;5.062;2023-06-05T13:52:38;7.95;;;3.80;;
57375;SDS011;44805;45.048;5.062;2023-06-05T13:55:04;6.70;;;4.10;;
57375;SDS011;44805;45.048;5.062;2023-06-05T13:57:30;6.65;;;3.90;;
57375;SDS011;44805;45.048;5.062;2023-06-05T13:59:56;7.88;;;3.90;;
57375;SDS011;44805;45.048;5.062;2023-06-05T14:02:21;7.00;;;3.72;;
57375;SDS011;44805;45.048;5.062;2023-06-05T14:04:47;6.57;;;3.70;;
57375;SDS011;44805;45.048;5.062;2023-06-05T14:07:12;6.97;;;3.83;;
57375;SDS011;44805;45.048;5.062;2023-06-05T14:09:38;7.25;;;4.13;;
57375;SDS011;44805;45.048;5.062;2023-06-05T14:12:03;6.82;;;3.83;;
57375;SDS011;44805;45.048;5.062;2023-06-05T14:14:29;6.93;;;3.80;;
57375;SDS011;44805;45.048;5.062;2023-06-05T14:16:55;8.02;;;3.72;;
57375;SDS011;44805;45.048;5.062;2023-06-05T14:19:21;6.18;;;3.58;;
57375;SDS011;44805;45.048;5.062;2023-06-05T14:21:46;7.05;;;3.80;;
57375;SDS011;44805;45.048;5.062;2023-06-05T14:24:11;6.70;;;3.85;;
57375;SDS011;44805;45.048;5.062;2023-06-05T14:26:39;6.38;;;3.55;;
57375;SDS011;44805;45.048;5.062;2023-06-05T14:29:07;6.97;;;3.70;;
57375;SDS011;44805;45.048;5.062;2023-06-05T14:31:33;6.72;;;3.85;;
57375;SDS011;44805;45.048;5.062;2023-06-05T14:34:01;7.72;;;3.85;;
57375;SDS011;44805;45.048;5.062;2023-06-05T14:36:27;7.40;;;3.80;;
57375;SDS011;44805;45.048;5.062;2023-06-05T14:38:53;7.20;;;4.13;;
57375;SDS011;44805;45.048;5.062;2023-06-05T14:41:18;7.32;;;3.72;;
57375;SDS011;44805;45.048;5.062;2023-06-05T14:43:44;6.13;;;3.78;;
57375;SDS011;44805;45.048;5.062;2023-06-05T14:46:09;9.35;;;3.80;;
57375;SDS011;44805;45.048;5.062;2023-06-05T14:48:35;6.68;;;4.00;;
57375;SDS011;44805;45.048;5.062;2023-06-05T14:51:00;6.70;;;3.95;;
57375;SDS011;44805;45.048;5.062;2023-06-05T14:53:25;7.32;;;3.90;;
57375;SDS011;44805;45.048;5.062;2023-06-05T14:55:52;7.15;;;4.25;;
57375;SDS011;44805;45.048;5.062;2023-06-05T14:58:18;7.10;;;3.60;;
57375;SDS011;44805;45.048;5.062;2023-06-05T15:00:44;6.15;;;3.35;;
57375;SDS011;44805;45.048;5.062;2023-06-05T15:03:10;6.65;;;4.07;;
57375;SDS011;44805;45.048;5.062;2023-06-05T15:05:36;6.78;;;3.80;;
57375;SDS011;44805;45.048;5.062;2023-06-05T15:08:02;6.80;;;3.67;;
57375;SDS011;44805;45.048;5.062;2023-06-05T15:10:27;6.15;;;3.60;;
57375;SDS011;44805;45.048;5.062;2023-06-05T15:12:53;6.22;;;3.70;;
57375;SDS011;44805;45.048;5.062;2023-06-05T15:17:51;6.72;;;4.00;;
57375;SDS011;44805;45.048;5.062;2023-06-05T15:20:20;7.60;;;4.28;;
57375;SDS011;44805;45.048;5.062;2023-06-05T15:22:46;5.95;;;3.78;;
57375;SDS011;44805;45.048;5.062;2023-06-05T15:25:11;7.75;;;3.95;;
57375;SDS011;44805;45.048;5.062;2023-06-05T15:27:37;6.45;;;4.10;;
57375;SDS011;44805;45.048;5.062;2023-06-05T15:30:04;7.13;;;4.05;;
57375;SDS011;44805;45.048;5.062;2023-06-05T15:32:30;7.18;;;4.18;;
57375;SDS011;44805;45.048;5.062;2023-06-05T15:34:59;8.93;;;3.95;;
57375;SDS011;44805;45.048;5.062;2023-06-05T15:37:24;7.60;;;4.10;;
57375;SDS011;44805;45.048;5.062;2023-06-05T15:39:50;6.82;;;4.15;;
57375;SDS011;44805;45.048;5.062;2023-06-05T15:42:32;7.45;;;4.07;;
57375;SDS011;44805;45.048;5.062;2023-06-05T15:45:06;8.27;;;4.40;;
57375;SDS011;44805;45.048;5.062;2023-06-05T15:47:33;7.90;;;4.47;;
57375;SDS011;44805;45.048;5.062;2023-06-05T15:49:59;7.20;;;4.10;;
57375;SDS011;44805;45.048;5.062;2023-06-05T15:52:25;9.13;;;4.10;;
57375;SDS011;44805;45.048;5.062;2023-06-05T15:54:54;6.82;;;3.95;;
57375;SDS011;44805;45.048;5.062;2023-06-05T15:57:20;9.10;;;4.20;;